Bookmark and Share
Track history (hours):
 

Atlantic Girl

More information available from US FCC via Universal Licensing System and Coast Guard Vessel Documentation Center.

Last reported at 2013-Aug-19 15:33 UTC. Time now 2014-Apr-18 13:15 UTC.
Position N 39°38' W 074°07'.
Warning: this ship's position is months out of date.

Length 22 m.

Type: Fishing. MMSI: 367122560.

NotesDate/timePositionNaut miles runAvg speedWind from/ knotsBaromVisibWave heightAir tempDewpointWater temp
2013-Aug-19 15:33N 39°38' W 074°07'8 8.3
2013-Aug-19 14:33N 39°46' W 074°05'55 2.6
2013-Aug-18 17:14N 40°14' W 073°02'3 3.1
2013-Aug-18 16:11N 40°17' W 073°04'2 3.5
2013-Aug-18 15:31N 40°15' W 073°02'0 0.3
2013-Aug-18 14:27N 40°15' W 073°02'2 2.1
2013-Aug-18 13:33N 40°13' W 073°02'1 1.1
2013-Aug-18 12:34N 40°15' W 073°02'1 1.2
2013-Aug-18 11:32N 40°16' W 073°02'1 0.6
2013-Aug-18 10:33N 40°15' W 073°02'1 0.7
2013-Aug-18 09:28N 40°15' W 073°02'0 0.3
2013-Aug-18 08:32N 40°14' W 073°02'2 2.4
2013-Aug-18 07:34N 40°17' W 073°03'3 2.2
2013-Aug-18 06:20N 40°14' W 073°02'3 3.6
2013-Aug-18 05:33N 40°17' W 073°03'1 1.3
2013-Aug-18 04:32N 40°16' W 073°01'2 1.2
2013-Aug-18 02:33N 40°17' W 072°59'2 2.4
2013-Aug-18 01:33N 40°18' W 073°02'4 3.9
2013-Aug-18 00:33N 40°20' W 072°58'6 5.8
2013-Aug-17 23:33N 40°22' W 072°51'5 5.3
2013-Aug-17 22:33N 40°24' W 072°44'10 4.9
2013-Aug-17 20:28N 40°26' W 072°31'3 3.7
2013-Aug-17 19:32N 40°25' W 072°27'3 3.0
2013-Aug-17 18:29N 40°26' W 072°31'1 0.5
2013-Aug-17 16:28N 40°25' W 072°31'2 0.8
2013-Aug-17 13:32N 40°25' W 072°28'2 2.5
2013-Aug-17 12:33N 40°24' W 072°25'1 0.8
2013-Aug-17 11:33N 40°23' W 072°25'3 3.1
2013-Aug-17 10:33N 40°25' W 072°28'0 0.2
2013-Aug-17 09:33N 40°25' W 072°28'3 2.9
2013-Aug-17 08:33N 40°23' W 072°25'5 4.8
2013-Aug-17 07:26N 40°25' W 072°32'3 3.0
2013-Aug-17 06:33N 40°25' W 072°28'0 0.1
2013-Aug-17 05:29N 40°25' W 072°28'1 0.5
2013-Aug-17 04:10N 40°25' W 072°29'0 0.7
2013-Aug-17 03:33N 40°25' W 072°30'2 1.7
2013-Aug-17 02:33N 40°25' W 072°28'4 4.4
2013-Aug-17 01:32N 40°22' W 072°23'4 4.4
2013-Aug-17 00:32N 40°25' W 072°27'1 0.9
2013-Aug-16 23:33N 40°25' W 072°28'4 3.8
2013-Aug-16 22:24N 40°22' W 072°24'5 1.7
2013-Aug-16 19:16N 40°26' W 072°28'4 4.9
2013-Aug-16 18:33N 40°28' W 072°24'3 3.0
2013-Aug-16 17:34N 40°25' W 072°26'4 3.8
2013-Aug-16 16:33N 40°25' W 072°31'3 1.2
2013-Aug-16 14:10N 40°24' W 072°27'3 3.5
2013-Aug-16 13:25N 40°26' W 072°30'3 3.3
2013-Aug-16 12:28N 40°25' W 072°26'  

Dump ship's entire track history

sailing weather and tide predictions

Atlantic Girl — WDD3000 — position and weather